Time;durP1;ratioP1;P1;durP2;ratioP2;P2;SDS_P1;SDS_P2;PMS_P1;PMS_P2;Temp;Humidity;BMP_temperature;BMP_pressure;BME280_temperature;BME280_humidity;BME280_pressure;Samples;Min_cycle;Max_cycle;Signal;HPM_P1;HPM_P2
2022/03/27 00:00:16;;;;;;;80.47;14.80;;;;;;;;;;5115287;28;20211;-71
2022/03/27 00:02:45;;;;;;;74.72;13.60;;;;;;;;;;5114446;28;20208;-72
2022/03/27 00:05:12;;;;;;;79.53;15.20;;;;;;;;;;5112955;28;20224;-69
2022/03/27 00:07:40;;;;;;;85.38;15.70;;;;;;;;;;5114215;28;20247;-73
2022/03/27 00:10:08;;;;;;;84.90;16.25;;;;;;;;;;5115020;28;20199;-71
2022/03/27 00:12:35;;;;;;;77.85;13.60;;;;;;;;;;5116113;28;20220;-71
2022/03/27 00:15:03;;;;;;;83.10;14.45;;;;;;;;;;5134432;28;20243;-72
2022/03/27 00:17:32;;;;;;;79.82;15.75;;;;;;;;;;5133882;28;20216;-71
2022/03/27 00:20:01;;;;;;;86.32;16.95;;;;;;;;;;5133832;28;20212;-71
2022/03/27 00:22:29;;;;;;;79.18;14.30;;;;;;;;;;5132969;28;20208;-72
2022/03/27 00:24:56;;;;;;;80.47;14.77;;;;;;;;;;5133479;28;20210;-73
2022/03/27 00:27:24;;;;;;;78.00;15.15;;;;;;;;;;5130572;28;20226;-70
2022/03/27 00:29:51;;;;;;;79.05;15.48;;;;;;;;;;5131307;28;20214;-73
2022/03/27 00:32:20;;;;;;;84.25;15.00;;;;;;;;;;5130720;28;20204;-73
2022/03/27 00:34:48;;;;;;;82.00;14.15;;;;;;;;;;5130937;28;20265;-72
2022/03/27 00:37:16;;;;;;;81.63;16.70;;;;;;;;;;5123844;28;20613;-73
2022/03/27 00:39:43;;;;;;;78.65;14.57;;;;;;;;;;5109516;28;20664;-71
2022/03/27 00:42:11;;;;;;;77.80;13.52;;;;;;;;;;5109929;28;20204;-73
2022/03/27 00:44:38;;;;;;;81.50;13.77;;;;;;;;;;5109912;28;20749;-72
2022/03/27 00:47:06;;;;;;;90.18;13.80;;;;;;;;;;5108643;28;20224;-73
2022/03/27 00:49:33;;;;;;;81.20;15.82;;;;;;;;;;5107565;28;20197;-73
2022/03/27 00:52:00;;;;;;;74.55;13.75;;;;;;;;;;5108887;28;20244;-72
2022/03/27 00:54:29;;;;;;;86.72;15.07;;;;;;;;;;5107972;28;20227;-71
2022/03/27 00:56:57;;;;;;;81.18;13.52;;;;;;;;;;5114039;28;20486;-73
2022/03/27 00:59:24;;;;;;;81.80;14.10;;;;;;;;;;5113791;28;20236;-73
2022/03/27 01:01:51;;;;;;;88.40;17.90;;;;;;;;;;5113507;28;20212;-72
2022/03/27 01:04:18;;;;;;;82.22;16.02;;;;;;;;;;5113968;28;20208;-71
2022/03/27 01:06:46;;;;;;;79.20;14.70;;;;;;;;;;5114024;28;20220;-72
2022/03/27 01:12:07;;;;;;;80.95;13.77;;;;;;;;;;5133683;28;20226;-72
2022/03/27 01:14:35;;;;;;;77.93;13.95;;;;;;;;;;5133438;28;20203;-73
2022/03/27 01:17:05;;;;;;;84.90;16.25;;;;;;;;;;5133885;28;20235;-72
2022/03/27 01:19:32;;;;;;;83.00;15.18;;;;;;;;;;5133077;28;20212;-72
2022/03/27 01:22:01;;;;;;;78.60;14.25;;;;;;;;;;5132970;28;20210;-72
2022/03/27 01:24:28;;;;;;;77.63;12.77;;;;;;;;;;5132562;28;20204;-73
2022/03/27 01:26:55;;;;;;;81.57;15.52;;;;;;;;;;5132915;28;20219;-72
2022/03/27 01:29:22;;;;;;;78.45;15.32;;;;;;;;;;5132380;28;20215;-72
2022/03/27 01:31:51;;;;;;;78.95;13.05;;;;;;;;;;5132381;28;20204;-72
2022/03/27 01:34:18;;;;;;;76.60;14.30;;;;;;;;;;5132439;28;20210;-72
2022/03/27 01:36:46;;;;;;;86.15;14.25;;;;;;;;;;5132726;28;20769;-71
2022/03/27 01:39:15;;;;;;;79.93;15.55;;;;;;;;;;5132690;28;20255;-73
2022/03/27 01:41:43;;;;;;;75.82;13.93;;;;;;;;;;5131154;28;20214;-71
2022/03/27 01:44:11;;;;;;;78.05;14.48;;;;;;;;;;5133555;28;20196;-72
2022/03/27 01:46:39;;;;;;;80.93;14.85;;;;;;;;;;5134073;28;20232;-71
2022/03/27 01:49:08;;;;;;;76.72;15.18;;;;;;;;;;5134439;28;20615;-70
2022/03/27 01:51:35;;;;;;;86.22;16.08;;;;;;;;;;5133677;28;20216;-72
2022/03/27 01:54:02;;;;;;;79.25;15.07;;;;;;;;;;5135244;28;20208;-71
2022/03/27 01:56:31;;;;;;;80.22;13.85;;;;;;;;;;5134909;28;20211;-70
2022/03/27 01:58:58;;;;;;;88.43;16.45;;;;;;;;;;5134654;28;20237;-72
2022/03/27 02:01:25;;;;;;;79.43;15.00;;;;;;;;;;5135605;28;20214;-72
2022/03/27 02:03:54;;;;;;;84.22;14.88;;;;;;;;;;5135369;28;20204;-72
2022/03/27 02:06:23;;;;;;;80.45;14.60;;;;;;;;;;5136189;28;20258;-70
2022/03/27 02:08:51;;;;;;;82.25;14.88;;;;;;;;;;5135570;28;20205;-70
2022/03/27 02:11:18;;;;;;;79.50;14.55;;;;;;;;;;5132676;28;20203;-69
2022/03/27 02:13:47;;;;;;;80.88;15.25;;;;;;;;;;5135382;28;20214;-73
2022/03/27 02:16:15;;;;;;;77.45;14.55;;;;;;;;;;5135646;28;20589;-70
2022/03/27 02:18:42;;;;;;;75.63;13.15;;;;;;;;;;5134598;28;20283;-72
2022/03/27 02:21:09;;;;;;;77.28;14.82;;;;;;;;;;5135394;28;20203;-72
2022/03/27 02:23:37;;;;;;;82.18;14.80;;;;;;;;;;5135501;28;20196;-70
2022/03/27 02:26:05;;;;;;;84.65;13.63;;;;;;;;;;5134921;28;20484;-69
2022/03/27 02:28:33;;;;;;;74.30;13.13;;;;;;;;;;5134221;28;20234;-72
2022/03/27 02:31:01;;;;;;;83.35;15.38;;;;;;;;;;5135272;28;20215;-71
2022/03/27 02:33:29;;;;;;;83.03;14.50;;;;;;;;;;5134951;28;20199;-72
2022/03/27 02:35:56;;;;;;;80.93;16.52;;;;;;;;;;5135492;28;20256;-71
2022/03/27 02:38:23;;;;;;;84.60;14.45;;;;;;;;;;5134316;28;20227;-70
2022/03/27 02:40:51;;;;;;;75.93;13.63;;;;;;;;;;5135238;28;20215;-69
2022/03/27 02:43:18;;;;;;;77.85;14.15;;;;;;;;;;5135371;28;20211;-72
2022/03/27 02:45:45;;;;;;;75.78;12.32;;;;;;;;;;5135258;28;20200;-70
2022/03/27 02:48:14;;;;;;;80.65;14.07;;;;;;;;;;5133996;28;20230;-72
2022/03/27 02:50:43;;;;;;;82.40;15.20;;;;;;;;;;5134869;28;20224;-72
2022/03/27 02:53:11;;;;;;;76.60;13.13;;;;;;;;;;5134921;28;20221;-70
2022/03/27 02:55:38;;;;;;;79.50;12.90;;;;;;;;;;5134832;28;20263;-72
2022/03/27 02:58:05;;;;;;;83.47;15.23;;;;;;;;;;5134106;28;20249;-71
2022/03/27 03:00:33;;;;;;;75.47;13.52;;;;;;;;;;5134600;28;20236;-72
2022/03/27 03:03:01;;;;;;;76.13;14.85;;;;;;;;;;5134056;28;20191;-72
2022/03/27 03:05:29;;;;;;;78.07;15.25;;;;;;;;;;5133516;28;20195;-71
2022/03/27 03:07:56;;;;;;;84.32;15.15;;;;;;;;;;5132874;28;20258;-71
2022/03/27 03:10:24;;;;;;;82.65;15.07;;;;;;;;;;5134357;28;20203;-69
2022/03/27 03:12:51;;;;;;;82.18;14.43;;;;;;;;;;5134307;28;20238;-73
2022/03/27 03:15:18;;;;;;;76.68;14.18;;;;;;;;;;5134298;28;20203;-72
2022/03/27 03:17:45;;;;;;;77.07;14.55;;;;;;;;;;5132738;28;20211;-73
2022/03/27 03:20:13;;;;;;;83.25;14.32;;;;;;;;;;5133066;28;20248;-70
2022/03/27 03:22:42;;;;;;;76.55;14.43;;;;;;;;;;5133573;28;20192;-70
2022/03/27 03:25:10;;;;;;;78.30;14.23;;;;;;;;;;5133189;28;20260;-72
2022/03/27 03:27:37;;;;;;;75.10;13.45;;;;;;;;;;5132169;28;20272;-72
2022/03/27 03:30:05;;;;;;;75.47;13.98;;;;;;;;;;5133065;28;20675;-71
2022/03/27 03:32:34;;;;;;;83.18;14.90;;;;;;;;;;5132318;28;20211;-72
2022/03/27 03:35:01;;;;;;;80.35;15.80;;;;;;;;;;5132465;28;20202;-72
2022/03/27 03:37:29;;;;;;;81.47;15.60;;;;;;;;;;5131366;28;20622;-70
2022/03/27 03:39:57;;;;;;;80.38;14.75;;;;;;;;;;5133580;28;20251;-72
2022/03/27 03:42:24;;;;;;;76.80;14.90;;;;;;;;;;5132856;28;20214;-71
2022/03/27 03:44:51;;;;;;;75.78;14.07;;;;;;;;;;5132263;28;20582;-72
2022/03/27 03:47:19;;;;;;;96.10;14.10;;;;;;;;;;5131224;28;20227;-71
2022/03/27 03:49:47;;;;;;;82.72;13.90;;;;;;;;;;5132767;28;20237;-73
2022/03/27 03:52:14;;;;;;;75.97;14.00;;;;;;;;;;5132972;28;20211;-72
2022/03/27 03:54:41;;;;;;;82.05;15.15;;;;;;;;;;5131823;28;20203;-70
2022/03/27 03:57:10;;;;;;;75.30;13.85;;;;;;;;;;5131683;28;20219;-71
2022/03/27 03:59:39;;;;;;;78.07;14.90;;;;;;;;;;5132956;28;20211;-70
2022/03/27 04:02:07;;;;;;;77.60;14.80;;;;;;;;;;5132742;28;20206;-72
2022/03/27 04:04:35;;;;;;;79.82;12.68;;;;;;;;;;5130393;28;20663;-72
2022/03/27 04:07:02;;;;;;;78.30;15.10;;;;;;;;;;5132363;28;20238;-72
2022/03/27 04:09:29;;;;;;;75.78;13.73;;;;;;;;;;5131566;28;20220;-71
2022/03/27 04:11:57;;;;;;;79.28;14.50;;;;;;;;;;5133680;28;20211;-71
2022/03/27 04:14:25;;;;;;;76.43;13.48;;;;;;;;;;5135574;28;20188;-72
2022/03/27 04:16:53;;;;;;;76.15;13.32;;;;;;;;;;5137493;28;20247;-68
2022/03/27 04:19:20;;;;;;;78.93;14.32;;;;;;;;;;5137258;28;20214;-70
2022/03/27 04:21:47;;;;;;;76.38;13.80;;;;;;;;;;5137171;28;20203;-72
2022/03/27 04:24:14;;;;;;;78.57;14.55;;;;;;;;;;5137470;28;20204;-70
2022/03/27 04:26:42;;;;;;;78.70;14.25;;;;;;;;;;5137428;28;20254;-70
2022/03/27 04:29:10;;;;;;;80.30;15.27;;;;;;;;;;5136047;28;20219;-73
2022/03/27 04:31:39;;;;;;;80.00;14.60;;;;;;;;;;5136189;28;20212;-73
2022/03/27 04:34:06;;;;;;;84.78;16.27;;;;;;;;;;5136514;28;20203;-71
2022/03/27 04:36:34;;;;;;;83.50;15.90;;;;;;;;;;5136168;28;20297;-74
2022/03/27 04:39:01;;;;;;;77.05;13.23;;;;;;;;;;5135649;28;20214;-72
2022/03/27 04:41:28;;;;;;;78.28;14.73;;;;;;;;;;5134722;28;20203;-72
2022/03/27 04:43:55;;;;;;;79.20;13.57;;;;;;;;;;5135177;28;20199;-73
2022/03/27 04:46:22;;;;;;;78.78;13.82;;;;;;;;;;5134808;28;20232;-72
2022/03/27 04:48:51;;;;;;;80.63;13.63;;;;;;;;;;5133870;28;20207;-73
2022/03/27 04:51:18;;;;;;;82.53;13.88;;;;;;;;;;5134411;28;20219;-72
2022/03/27 04:53:45;;;;;;;78.95;13.60;;;;;;;;;;5134894;28;20211;-72
2022/03/27 04:56:12;;;;;;;75.60;14.25;;;;;;;;;;5133799;28;20265;-72
2022/03/27 04:58:39;;;;;;;74.90;13.57;;;;;;;;;;5133923;28;20207;-72
2022/03/27 05:01:07;;;;;;;81.90;14.20;;;;;;;;;;5132822;28;20226;-72
2022/03/27 05:03:34;;;;;;;80.88;14.63;;;;;;;;;;5133399;28;20207;-73
2022/03/27 05:06:03;;;;;;;82.20;13.82;;;;;;;;;;5133263;28;20230;-74
2022/03/27 05:08:32;;;;;;;79.00;14.27;;;;;;;;;;5131898;28;20756;-73
2022/03/27 05:11:00;;;;;;;76.40;14.23;;;;;;;;;;5132009;28;20228;-71
2022/03/27 05:13:27;;;;;;;80.28;14.63;;;;;;;;;;5132053;28;20271;-72
2022/03/27 05:15:54;;;;;;;72.70;11.73;;;;;;;;;;5130862;27;20208;-73
2022/03/27 05:18:21;;;;;;;88.05;15.00;;;;;;;;;;5129157;28;20231;-73
2022/03/27 05:20:49;;;;;;;77.72;14.20;;;;;;;;;;5131476;28;20227;-73
2022/03/27 05:23:17;;;;;;;77.90;14.93;;;;;;;;;;5130659;28;20237;-73
2022/03/27 05:25:45;;;;;;;75.70;14.23;;;;;;;;;;5131787;28;20267;-73
2022/03/27 05:28:14;;;;;;;79.90;14.73;;;;;;;;;;5130967;28;20235;-74
2022/03/27 05:30:41;;;;;;;77.63;13.52;;;;;;;;;;5131548;28;20243;-74
2022/03/27 05:33:08;;;;;;;75.60;14.55;;;;;;;;;;5130880;28;20204;-73
2022/03/27 05:35:35;;;;;;;76.78;13.45;;;;;;;;;;5130923;28;20235;-72
2022/03/27 05:38:03;;;;;;;77.82;14.50;;;;;;;;;;5125172;28;20224;-74
2022/03/27 05:40:31;;;;;;;74.05;13.23;;;;;;;;;;5126490;28;20207;-72
2022/03/27 05:42:58;;;;;;;77.90;13.95;;;;;;;;;;5125560;28;20204;-74
2022/03/27 05:45:26;;;;;;;79.80;13.43;;;;;;;;;;5125839;27;20641;-72
2022/03/27 05:47:53;;;;;;;87.40;15.82;;;;;;;;;;5123299;28;20227;-74
2022/03/27 05:50:22;;;;;;;78.57;13.85;;;;;;;;;;5127924;28;20223;-72
2022/03/27 05:52:50;;;;;;;77.63;14.00;;;;;;;;;;5130562;28;20203;-72
2022/03/27 05:55:17;;;;;;;114.32;15.75;;;;;;;;;;5131286;28;20207;-73
2022/03/27 05:57:46;;;;;;;84.57;16.17;;;;;;;;;;5131098;28;20223;-71
2022/03/27 06:00:16;;;;;;;77.25;12.32;;;;;;;;;;5132106;28;20268;-73
2022/03/27 06:02:43;;;;;;;81.22;14.05;;;;;;;;;;5131607;28;20231;-72
2022/03/27 06:05:11;;;;;;;83.13;14.40;;;;;;;;;;5131565;28;20207;-71
2022/03/27 06:07:45;;;;;;;79.20;14.77;;;;;;;;;;5130931;28;20224;-74
2022/03/27 06:10:12;;;;;;;74.15;13.48;;;;;;;;;;5131877;28;20660;-73
2022/03/27 06:12:39;;;;;;;81.72;15.88;;;;;;;;;;5131363;28;20207;-73
2022/03/27 06:15:08;;;;;;;79.88;14.82;;;;;;;;;;5131327;28;20306;-72
2022/03/27 06:17:40;;;;;;;76.90;13.48;;;;;;;;;;5130701;28;20251;-74
2022/03/27 06:20:08;;;;;;;78.70;14.20;;;;;;;;;;5131479;28;20204;-72
2022/03/27 06:22:35;;;;;;;79.38;14.65;;;;;;;;;;5131254;28;20231;-72
2022/03/27 06:25:02;;;;;;;79.93;14.13;;;;;;;;;;5131156;28;20230;-72
2022/03/27 06:27:29;;;;;;;79.80;14.73;;;;;;;;;;5131026;28;20227;-73
2022/03/27 06:29:56;;;;;;;82.88;14.98;;;;;;;;;;5131526;28;20253;-74
2022/03/27 06:32:26;;;;;;;83.75;16.00;;;;;;;;;;5131873;28;20710;-72
2022/03/27 06:34:56;;;;;;;75.05;14.30;;;;;;;;;;5132439;28;20229;-72
2022/03/27 06:37:23;;;;;;;80.65;14.05;;;;;;;;;;5129949;28;20227;-72
2022/03/27 06:39:50;;;;;;;79.65;14.05;;;;;;;;;;5131157;28;20214;-73
2022/03/27 06:42:18;;;;;;;80.85;13.60;;;;;;;;;;5130504;28;20212;-73
2022/03/27 06:44:45;;;;;;;82.55;13.43;;;;;;;;;;5130267;28;20214;-73
2022/03/27 06:47:13;;;;;;;83.22;14.73;;;;;;;;;;5128695;28;20222;-73
2022/03/27 06:49:41;;;;;;;75.90;13.82;;;;;;;;;;5130042;28;20211;-73
2022/03/27 06:52:09;;;;;;;76.82;14.38;;;;;;;;;;5130354;28;20204;-73
2022/03/27 06:54:36;;;;;;;81.45;14.20;;;;;;;;;;5132148;28;20199;-73
2022/03/27 06:57:03;;;;;;;88.68;16.02;;;;;;;;;;5132763;28;20287;-73
2022/03/27 07:03:01;;;;;;;77.35;14.50;;;;;;;;;;5132415;28;20207;-72
2022/03/27 07:05:05;;;;;;;79.53;14.32;;;;;;;;;;5134038;28;20199;-73
2022/03/27 07:07:32;;;;;;;76.35;15.25;;;;;;;;;;5130917;28;20235;-74
2022/03/27 07:09:59;;;;;;;82.32;15.10;;;;;;;;;;5132199;28;20199;-73
2022/03/27 07:12:27;;;;;;;76.30;13.50;;;;;;;;;;5132617;28;20259;-73
2022/03/27 07:14:54;;;;;;;77.95;14.93;;;;;;;;;;5133253;28;20531;-72
2022/03/27 07:17:21;;;;;;;75.25;13.57;;;;;;;;;;5132303;28;20223;-72
2022/03/27 07:19:49;;;;;;;76.53;14.18;;;;;;;;;;5132706;28;20203;-72
2022/03/27 07:22:18;;;;;;;79.38;13.73;;;;;;;;;;5133094;28;20237;-74
2022/03/27 07:24:46;;;;;;;93.72;17.27;;;;;;;;;;5133061;28;20210;-73
2022/03/27 07:27:13;;;;;;;79.07;14.93;;;;;;;;;;5132681;28;20236;-73
2022/03/27 07:29:40;;;;;;;78.70;14.57;;;;;;;;;;5133459;28;20234;-72
2022/03/27 07:32:08;;;;;;;76.32;14.90;;;;;;;;;;5133332;28;20255;-72
2022/03/27 07:34:36;;;;;;;77.03;16.33;;;;;;;;;;5132684;28;20196;-74
2022/03/27 07:37:04;;;;;;;81.30;15.45;;;;;;;;;;5132313;28;20243;-73
2022/03/27 07:39:32;;;;;;;79.75;15.20;;;;;;;;;;5131033;28;20241;-72
2022/03/27 07:41:59;;;;;;;82.60;16.65;;;;;;;;;;5131379;28;20210;-74
2022/03/27 07:44:26;;;;;;;82.60;14.50;;;;;;;;;;5130710;28;20487;-74
2022/03/27 07:46:58;;;;;;;79.80;15.35;;;;;;;;;;5130124;28;20244;-74
2022/03/27 07:49:25;;;;;;;74.55;12.82;;;;;;;;;;5131452;28;20222;-74
2022/03/27 07:51:53;;;;;;;81.72;14.18;;;;;;;;;;5133421;28;20219;-74
2022/03/27 07:54:20;;;;;;;77.93;16.05;;;;;;;;;;5133838;28;20191;-74
2022/03/27 07:56:48;;;;;;;78.93;13.88;;;;;;;;;;5132721;27;20231;-72
2022/03/27 07:59:15;;;;;;;80.18;14.57;;;;;;;;;;5132367;28;20218;-73
2022/03/27 08:01:43;;;;;;;79.93;13.80;;;;;;;;;;5132783;28;20684;-74
2022/03/27 08:04:10;;;;;;;79.82;15.50;;;;;;;;;;5132644;28;20516;-72
2022/03/27 08:06:37;;;;;;;81.70;15.98;;;;;;;;;;5131779;28;20254;-74
2022/03/27 08:09:05;;;;;;;76.97;13.07;;;;;;;;;;5130509;28;20242;-74
2022/03/27 08:11:32;;;;;;;79.00;13.38;;;;;;;;;;5131355;28;20309;-74
2022/03/27 08:14:00;;;;;;;75.30;13.13;;;;;;;;;;5129642;28;20202;-73
2022/03/27 08:16:28;;;;;;;80.45;13.80;;;;;;;;;;5128859;28;20505;-72
2022/03/27 08:18:55;;;;;;;77.47;12.83;;;;;;;;;;5128809;28;20648;-73
2022/03/27 08:21:22;;;;;;;81.03;14.20;;;;;;;;;;5130026;28;20986;-72
2022/03/27 08:23:49;;;;;;;77.30;12.57;;;;;;;;;;5129120;28;20503;-74
2022/03/27 08:29:14;;;;;;;72.47;12.90;;;;;;;;;;5085097;28;20429;-73
2022/03/27 08:31:41;;;;;;;80.73;14.10;;;;;;;;;;5119006;28;20505;-73
2022/03/27 08:34:09;;;;;;;76.17;14.10;;;;;;;;;;5129610;28;20445;-72
2022/03/27 08:36:36;;;;;;;78.80;13.80;;;;;;;;;;5128971;28;20851;-74
2022/03/27 08:39:04;;;;;;;78.77;12.80;;;;;;;;;;5127264;27;20460;-74
2022/03/27 08:41:31;;;;;;;75.17;13.83;;;;;;;;;;5127608;28;20877;-74
2022/03/27 08:43:59;;;;;;;73.50;12.60;;;;;;;;;;5126233;28;20509;-74
2022/03/27 08:46:29;;;;;;;70.90;12.50;;;;;;;;;;5126621;28;20907;-73
2022/03/27 08:49:01;;;;;;;75.70;13.60;;;;;;;;;;5126754;28;20498;-74
2022/03/27 08:51:29;;;;;;;73.57;13.30;;;;;;;;;;5126166;28;20516;-74
2022/03/27 08:54:01;;;;;;;77.30;13.97;;;;;;;;;;5126061;28;20970;-74
2022/03/27 08:56:29;;;;;;;74.03;12.70;;;;;;;;;;5126693;28;20560;-74
2022/03/27 08:58:57;;;;;;;76.17;14.37;;;;;;;;;;5125918;28;20442;-74
2022/03/27 09:01:24;;;;;;;74.80;13.23;;;;;;;;;;5125205;28;20529;-73
2022/03/27 09:03:53;;;;;;;76.80;13.03;;;;;;;;;;5124469;28;20450;-74
2022/03/27 09:06:22;;;;;;;74.70;13.20;;;;;;;;;;5125477;28;20902;-74
2022/03/27 09:08:49;;;;;;;76.40;13.03;;;;;;;;;;5123278;28;20437;-73
2022/03/27 09:11:17;;;;;;;72.20;13.57;;;;;;;;;;5124346;28;20548;-74
2022/03/27 09:13:47;;;;;;;73.90;12.90;;;;;;;;;;5124376;27;20449;-74
2022/03/27 09:16:15;;;;;;;73.63;12.40;;;;;;;;;;5122485;28;20546;-74
2022/03/27 09:18:47;;;;;;;72.70;11.77;;;;;;;;;;5123083;28;20481;-74
2022/03/27 09:21:15;;;;;;;77.57;11.90;;;;;;;;;;5122686;28;20864;-74
2022/03/27 09:23:43;;;;;;;76.40;12.80;;;;;;;;;;5121755;28;20819;-74
2022/03/27 09:26:13;;;;;;;77.60;12.30;;;;;;;;;;5122411;28;20533;-73
2022/03/27 09:28:41;;;;;;;78.00;14.70;;;;;;;;;;5119876;28;20457;-74
2022/03/27 09:31:21;;;;;;;76.00;13.60;;;;;;;;;;5118502;28;20576;-74
2022/03/27 09:33:50;;;;;;;79.33;14.20;;;;;;;;;;5119091;28;20548;-74
2022/03/27 09:36:23;;;;;;;79.57;14.17;;;;;;;;;;5118908;28;20454;-74
2022/03/27 09:39:07;;;;;;;71.97;12.10;;;;;;;;;;5118280;28;21024;-74
2022/03/27 09:41:42;;;;;;;72.47;11.87;;;;;;;;;;5117069;27;20441;-74
2022/03/27 09:44:11;;;;;;;72.93;13.40;;;;;;;;;;5117789;28;20449;-74
2022/03/27 09:46:48;;;;;;;71.83;11.27;;;;;;;;;;5117191;28;20518;-74
2022/03/27 09:49:15;;;;;;;75.67;12.70;;;;;;;;;;5116905;28;20446;-74
2022/03/27 09:51:57;;;;;;;75.57;14.03;;;;;;;;;;5116724;28;21034;-73
2022/03/27 09:54:24;;;;;;;74.87;13.67;;;;;;;;;;5117026;28;20529;-74
2022/03/27 09:56:51;;;;;;;72.53;12.53;;;;;;;;;;5117086;28;20528;-74
2022/03/27 09:59:32;;;;;;;78.40;13.03;;;;;;;;;;5117030;28;20489;-74
2022/03/27 10:02:17;;;;;;;73.50;13.30;;;;;;;;;;5116111;28;20466;-74
2022/03/27 10:04:55;;;;;;;72.40;11.77;;;;;;;;;;5115457;28;20956;-73
2022/03/27 10:07:24;;;;;;;73.67;12.37;;;;;;;;;;5114447;28;20471;-74
2022/03/27 10:09:52;;;;;;;73.13;12.07;;;;;;;;;;5115068;28;20545;-74
2022/03/27 10:12:19;;;;;;;77.37;13.07;;;;;;;;;;5113009;28;20481;-75
2022/03/27 10:14:47;;;;;;;75.50;12.03;;;;;;;;;;5113703;28;20774;-75
2022/03/27 10:17:16;;;;;;;75.13;12.97;;;;;;;;;;5112786;28;20468;-76
2022/03/27 10:19:46;;;;;;;70.47;12.10;;;;;;;;;;5113374;28;20461;-76
2022/03/27 10:22:16;;;;;;;74.60;11.70;;;;;;;;;;5113299;28;20485;-75
2022/03/27 10:24:46;;;;;;;69.50;12.00;;;;;;;;;;5113171;28;21010;-76
2022/03/27 10:27:14;;;;;;;70.17;12.00;;;;;;;;;;5112945;28;21086;-76
2022/03/27 10:29:42;;;;;;;71.47;12.37;;;;;;;;;;5113050;28;20458;-75
2022/03/27 10:32:11;;;;;;;74.27;13.03;;;;;;;;;;5113189;28;20529;-74
2022/03/27 10:34:43;;;;;;;71.00;13.13;;;;;;;;;;5112993;28;20448;-75
2022/03/27 10:37:14;;;;;;;66.27;10.83;;;;;;;;;;5112621;28;20833;-73
2022/03/27 10:39:45;;;;;;;68.90;12.33;;;;;;;;;;5113099;28;20877;-76
2022/03/27 10:42:16;;;;;;;70.27;11.30;;;;;;;;;;5114281;28;20485;-75
2022/03/27 10:44:45;;;;;;;71.00;10.30;;;;;;;;;;5112787;28;20445;-75
2022/03/27 10:47:17;;;;;;;69.83;10.43;;;;;;;;;;5112085;28;20476;-76
2022/03/27 10:50:05;;;;;;;67.00;11.10;;;;;;;;;;5112845;28;20793;-75
2022/03/27 10:52:33;;;;;;;68.77;11.70;;;;;;;;;;5112437;28;20449;-72
2022/03/27 10:55:01;;;;;;;69.80;11.10;;;;;;;;;;5112774;28;20450;-72
2022/03/27 10:57:34;;;;;;;70.07;11.47;;;;;;;;;;5111985;28;20473;-72
2022/03/27 11:00:01;;;;;;;73.60;12.30;;;;;;;;;;5112567;28;20450;-75
2022/03/27 11:02:44;;;;;;;71.17;11.73;;;;;;;;;;5112942;28;21070;-73
2022/03/27 11:05:27;;;;;;;75.00;12.60;;;;;;;;;;5113567;28;20448;-73
2022/03/27 11:08:14;;;;;;;72.73;11.47;;;;;;;;;;5112063;28;20518;-74
2022/03/27 11:10:41;;;;;;;68.40;12.00;;;;;;;;;;5112448;28;20448;-73
2022/03/27 11:13:23;;;;;;;67.40;10.57;;;;;;;;;;5112562;28;20538;-73
2022/03/27 11:16:03;;;;;;;68.83;11.00;;;;;;;;;;5112075;28;20507;-73
2022/03/27 11:18:36;;;;;;;69.20;11.53;;;;;;;;;;5111897;28;20472;-73
2022/03/27 11:21:03;;;;;;;69.60;9.90;;;;;;;;;;5112596;28;20452;-73
2022/03/27 11:23:32;;;;;;;72.27;10.73;;;;;;;;;;5112341;28;20708;-76
2022/03/27 11:26:00;;;;;;;72.33;10.20;;;;;;;;;;5112460;28;20450;-73
2022/03/27 11:28:27;;;;;;;70.80;10.30;;;;;;;;;;5111839;28;20493;-74
2022/03/27 11:31:21;;;;;;;69.37;11.07;;;;;;;;;;5112014;28;20459;-74
2022/03/27 11:34:07;;;;;;;67.20;10.83;;;;;;;;;;5075641;28;20537;-74
2022/03/27 11:36:37;;;;;;;68.83;10.83;;;;;;;;;;5112281;28;20605;-74
2022/03/27 11:39:07;;;;;;;70.17;11.13;;;;;;;;;;5111706;28;20438;-74
2022/03/27 11:41:38;;;;;;;66.93;10.40;;;;;;;;;;5112407;28;20481;-74
2022/03/27 11:44:20;;;;;;;66.87;10.97;;;;;;;;;;5112219;28;20450;-74
2022/03/27 11:46:50;;;;;;;71.40;10.80;;;;;;;;;;5109867;28;20851;-74
2022/03/27 11:49:17;;;;;;;69.97;11.10;;;;;;;;;;5111533;28;20502;-75
2022/03/27 11:51:46;;;;;;;71.03;10.63;;;;;;;;;;5112416;28;20802;-75
2022/03/27 11:54:19;;;;;;;67.10;10.00;;;;;;;;;;5112088;28;20437;-75
2022/03/27 11:56:53;;;;;;;66.63;10.57;;;;;;;;;;5111952;28;20467;-74
2022/03/27 11:59:22;;;;;;;73.03;11.00;;;;;;;;;;5111136;28;20965;-75
2022/03/27 12:01:51;;;;;;;68.53;10.80;;;;;;;;;;5111890;28;20486;-73
2022/03/27 12:04:18;;;;;;;65.43;10.23;;;;;;;;;;5111902;28;20446;-74
2022/03/27 12:06:47;;;;;;;68.33;9.80;;;;;;;;;;5111870;28;20556;-75
2022/03/27 12:09:24;;;;;;;68.03;9.40;;;;;;;;;;5110984;28;20420;-74
2022/03/27 12:12:04;;;;;;;65.20;9.67;;;;;;;;;;5111893;28;20453;-74
2022/03/27 12:14:31;;;;;;;66.10;9.77;;;;;;;;;;5111592;28;20441;-75
2022/03/27 12:16:58;;;;;;;66.53;9.53;;;;;;;;;;5111605;28;20473;-74
2022/03/27 12:19:25;;;;;;;65.50;8.97;;;;;;;;;;5111219;28;20828;-74
2022/03/27 12:21:54;;;;;;;69.07;11.03;;;;;;;;;;5111582;28;20918;-74
2022/03/27 12:24:21;;;;;;;66.10;9.30;;;;;;;;;;5111664;28;20454;-75
2022/03/27 12:29:43;;;;;;;67.43;9.87;;;;;;;;;;5111240;28;20436;-75
2022/03/27 12:32:12;;;;;;;65.33;10.80;;;;;;;;;;5111606;28;20492;-75
2022/03/27 12:34:41;;;;;;;64.90;9.63;;;;;;;;;;5112127;28;20452;-75
2022/03/27 12:37:12;;;;;;;64.07;8.53;;;;;;;;;;5114761;28;20472;-73
2022/03/27 12:39:43;;;;;;;69.07;9.23;;;;;;;;;;5115439;28;20825;-74
2022/03/27 12:42:25;;;;;;;65.40;9.17;;;;;;;;;;5115326;28;20447;-74
2022/03/27 12:44:52;;;;;;;67.53;9.60;;;;;;;;;;5114803;28;20532;-75
2022/03/27 12:47:19;;;;;;;74.93;9.80;;;;;;;;;;5114514;28;20863;-74
2022/03/27 12:49:50;;;;;;;66.40;9.57;;;;;;;;;;5115255;28;20449;-75
2022/03/27 12:52:19;;;;;;;65.60;9.33;;;;;;;;;;5114972;28;20481;-75
2022/03/27 12:54:55;;;;;;;66.50;10.37;;;;;;;;;;5114949;28;20449;-75
2022/03/27 12:57:22;;;;;;;67.63;9.30;;;;;;;;;;5113998;28;20551;-75
2022/03/27 12:59:50;;;;;;;65.60;8.90;;;;;;;;;;5114833;28;20488;-75
2022/03/27 13:02:27;;;;;;;65.40;9.13;;;;;;;;;;5114828;28;20525;-75
2022/03/27 13:05:01;;;;;;;71.47;8.70;;;;;;;;;;5114899;28;20449;-74
2022/03/27 13:07:47;;;;;;;67.00;10.13;;;;;;;;;;5114080;28;20481;-75
2022/03/27 13:10:15;;;;;;;64.60;9.40;;;;;;;;;;5115132;28;20455;-75
2022/03/27 13:12:42;;;;;;;66.87;9.70;;;;;;;;;;5114693;28;20482;-75
2022/03/27 13:15:11;;;;;;;67.20;9.00;;;;;;;;;;5114537;28;20449;-75
2022/03/27 13:17:38;;;;;;;65.97;9.20;;;;;;;;;;5113818;28;20526;-75
2022/03/27 13:20:06;;;;;;;65.00;9.50;;;;;;;;;;5114453;28;20441;-74
2022/03/27 13:22:33;;;;;;;65.07;9.73;;;;;;;;;;5114610;28;20446;-74
2022/03/27 13:25:00;;;;;;;72.17;9.73;;;;;;;;;;5114753;28;20452;-74
2022/03/27 13:27:29;;;;;;;64.70;8.33;;;;;;;;;;5113573;28;20473;-75
2022/03/27 13:29:56;;;;;;;71.00;10.20;;;;;;;;;;5114287;28;20557;-73
2022/03/27 13:32:23;;;;;;;66.73;8.60;;;;;;;;;;5114160;28;20568;-74
2022/03/27 13:34:50;;;;;;;66.53;8.73;;;;;;;;;;5114136;28;20918;-74
2022/03/27 13:37:17;;;;;;;66.00;8.83;;;;;;;;;;5113877;28;20816;-75
2022/03/27 13:39:45;;;;;;;69.40;9.30;;;;;;;;;;5114591;28;20449;-74
2022/03/27 13:44:58;;;;;;;69.43;9.70;;;;;;;;;;5114053;28;20413;-73
2022/03/27 13:47:25;;;;;;;65.47;8.93;;;;;;;;;;5111840;28;20481;-75
2022/03/27 13:49:52;;;;;;;64.90;8.90;;;;;;;;;;5114048;28;20536;-73
2022/03/27 13:52:20;;;;;;;63.70;8.00;;;;;;;;;;5113616;28;20564;-75
2022/03/27 13:54:47;;;;;;;65.57;9.00;;;;;;;;;;5113754;28;20994;-74
2022/03/27 13:57:14;;;;;;;64.17;8.37;;;;;;;;;;5112957;28;20844;-75
2022/03/27 13:59:41;;;;;;;64.20;9.00;;;;;;;;;;5113622;28;20544;-74
2022/03/27 14:02:10;;;;;;;67.53;9.30;;;;;;;;;;5113650;28;20426;-74
2022/03/27 14:04:37;;;;;;;65.60;9.23;;;;;;;;;;5113649;28;20833;-74
2022/03/27 14:07:04;;;;;;;64.97;8.43;;;;;;;;;;5113538;28;20469;-74
2022/03/27 14:09:31;;;;;;;68.23;7.90;;;;;;;;;;5112606;28;20527;-74
2022/03/27 14:11:58;;;;;;;67.57;8.20;;;;;;;;;;5113203;28;20540;-75
2022/03/27 14:14:26;;;;;;;67.03;8.80;;;;;;;;;;5113215;28;20447;-74
2022/03/27 14:16:53;;;;;;;71.33;9.47;;;;;;;;;;5113434;28;20553;-74
2022/03/27 14:19:22;;;;;;;67.57;9.93;;;;;;;;;;5112815;28;20550;-75
2022/03/27 14:21:50;;;;;;;66.47;7.63;;;;;;;;;;5113291;28;20989;-75
2022/03/27 14:24:17;;;;;;;64.97;8.57;;;;;;;;;;5113335;28;20445;-73
2022/03/27 14:26:45;;;;;;;66.90;9.17;;;;;;;;;;5112972;28;20553;-74
2022/03/27 14:29:13;;;;;;;68.57;8.57;;;;;;;;;;5112777;28;20450;-74
2022/03/27 14:31:40;;;;;;;63.67;8.23;;;;;;;;;;5113354;28;20658;-74
2022/03/27 14:34:08;;;;;;;64.27;8.60;;;;;;;;;;5112970;27;20484;-75
2022/03/27 14:36:36;;;;;;;67.40;9.10;;;;;;;;;;5112890;28;21024;-74
2022/03/27 14:39:03;;;;;;;63.17;7.40;;;;;;;;;;5112330;28;20528;-75
2022/03/27 14:41:32;;;;;;;63.87;7.40;;;;;;;;;;5113023;28;20477;-75